createdAt,value
2022-08-11T00:00:00.207Z,8.1
2022-08-11T00:05:00.430Z,9.6
2022-08-11T00:10:00.214Z,6.7
2022-08-11T00:15:00.171Z,7.0
2022-08-11T00:20:14.427Z,4.4
2022-08-11T00:25:02.550Z,5.0
2022-08-11T00:30:00.197Z,5.0
2022-08-11T00:35:53.703Z,7.7
2022-08-11T00:40:00.404Z,6.1
2022-08-11T00:45:00.199Z,4.8
2022-08-11T00:50:00.194Z,6.0
2022-08-11T00:55:00.238Z,6.8
2022-08-11T01:00:00.194Z,6.1
2022-08-11T01:05:00.218Z,6.1
2022-08-11T01:10:05.134Z,7.1
2022-08-11T01:15:00.189Z,8.0
2022-08-11T01:20:46.086Z,6.1
2022-08-11T01:25:00.203Z,8.4
2022-08-11T01:30:00.206Z,4.9
2022-08-11T01:35:00.197Z,7.2
2022-08-11T01:40:00.221Z,4.2
2022-08-11T01:45:00.205Z,5.8
2022-08-11T01:50:09.761Z,7.9
2022-08-11T01:55:00.193Z,5.9
2022-08-11T02:00:00.211Z,7.1
2022-08-11T02:05:00.190Z,7.7
2022-08-11T02:10:00.210Z,5.9
2022-08-11T02:15:05.531Z,6.7
2022-08-11T02:20:00.207Z,6.0
2022-08-11T02:25:00.201Z,5.4
2022-08-11T02:30:00.207Z,6.3
2022-08-11T02:35:00.629Z,6.6
2022-08-11T02:40:00.215Z,8.5
2022-08-11T02:45:00.358Z,6.5
2022-08-11T02:50:06.776Z,8.1
2022-08-11T02:55:00.175Z,8.0
2022-08-11T03:00:00.539Z,5.1
2022-08-11T03:05:00.186Z,5.9
2022-08-11T03:10:00.200Z,6.8
2022-08-11T03:15:00.420Z,6.0
2022-08-11T03:20:00.229Z,6.4
2022-08-11T03:25:00.185Z,5.6
2022-08-11T03:30:00.227Z,10.5
2022-08-11T03:35:00.203Z,7.0
2022-08-11T03:40:00.368Z,6.6
2022-08-11T03:45:00.191Z,8.3
2022-08-11T03:50:00.227Z,6.6
2022-08-11T03:55:00.193Z,7.1
2022-08-11T04:00:00.234Z,7.0
2022-08-11T04:05:00.214Z,8.2
2022-08-11T04:10:00.219Z,8.1
2022-08-11T04:15:00.207Z,5.7
2022-08-11T04:20:00.204Z,6.3
2022-08-11T04:25:00.164Z,8.5
2022-08-11T04:30:03.025Z,9.4
2022-08-11T04:35:00.188Z,7.5
2022-08-11T04:40:00.202Z,8.6
2022-08-11T04:45:00.222Z,8.5
2022-08-11T04:50:00.218Z,7.7
2022-08-11T04:55:00.165Z,10.3
2022-08-11T05:00:00.242Z,13.2
2022-08-11T05:05:00.188Z,12.2
2022-08-11T05:10:00.210Z,11.3
2022-08-11T05:15:00.236Z,9.8
2022-08-11T05:20:00.201Z,9.0
2022-08-11T05:25:00.207Z,10.5
2022-08-11T05:30:00.205Z,8.0
2022-08-11T05:35:00.183Z,7.4
2022-08-11T05:40:00.324Z,9.1
2022-08-11T05:45:00.214Z,9.4
2022-08-11T05:50:00.224Z,10.5
2022-08-11T05:55:00.221Z,11.9
2022-08-11T06:00:00.237Z,12.1
2022-08-11T06:05:00.173Z,11.8
2022-08-11T06:10:00.228Z,9.5
2022-08-11T06:15:00.188Z,15.2
2022-08-11T06:20:06.096Z,8.5
2022-08-11T06:25:00.166Z,8.3
2022-08-11T06:30:00.212Z,14.3
2022-08-11T06:35:00.191Z,13.9
2022-08-11T06:40:00.445Z,12.1
2022-08-11T06:45:00.175Z,9.5
2022-08-11T06:50:00.247Z,10.8
2022-08-11T06:55:00.197Z,14.3
2022-08-11T07:00:00.192Z,14.2
2022-08-11T07:05:00.226Z,18.0
2022-08-11T07:10:00.217Z,16.7
2022-08-11T07:15:00.789Z,8.1
2022-08-11T07:20:00.226Z,15.1
2022-08-11T07:25:02.466Z,12.7
2022-08-11T07:30:00.205Z,23.9
2022-08-11T07:35:00.188Z,17.2
2022-08-11T07:40:00.475Z,15.6
2022-08-11T07:45:00.294Z,14.1
2022-08-11T07:50:00.238Z,9.8
2022-08-11T07:55:00.571Z,8.5
2022-08-11T08:00:04.592Z,10.4
2022-08-11T08:05:00.205Z,9.8
2022-08-11T08:10:00.274Z,10.3
2022-08-11T08:15:01.191Z,8.0
2022-08-11T08:20:00.271Z,11.9
2022-08-11T08:25:00.234Z,11.8
2022-08-11T08:30:00.453Z,11.8
2022-08-11T08:35:00.267Z,9.0
2022-08-11T08:40:00.267Z,12.6
2022-08-11T08:45:00.210Z,9.7
2022-08-11T08:50:00.217Z,9.0
2022-08-11T08:55:00.177Z,12.4
2022-08-11T09:00:00.186Z,11.3
2022-08-11T09:05:00.444Z,6.3
2022-08-11T09:10:00.189Z,5.8
2022-08-11T09:15:00.189Z,8.3
2022-08-11T09:20:00.245Z,4.8
2022-08-11T09:25:00.172Z,5.2
2022-08-11T09:30:00.213Z,4.1
2022-08-11T09:35:00.225Z,7.3
2022-08-11T09:40:00.247Z,5.0
2022-08-11T09:45:00.912Z,5.3
2022-08-11T09:50:01.067Z,5.5
2022-08-11T09:55:00.195Z,5.1
2022-08-11T10:00:12.860Z,6.0
2022-08-11T10:05:00.210Z,16.4
2022-08-11T10:10:00.225Z,3.8
2022-08-11T10:15:00.169Z,4.8
2022-08-11T10:20:04.771Z,6.2
2022-08-11T10:30:00.212Z,6.8
2022-08-11T10:35:00.161Z,6.2
2022-08-11T10:40:00.206Z,7.7
2022-08-11T10:45:00.214Z,6.7
2022-08-11T10:50:00.211Z,4.8
2022-08-11T10:55:00.195Z,4.8
2022-08-11T11:00:00.227Z,4.0
2022-08-11T11:05:02.224Z,4.7
2022-08-11T11:10:00.360Z,6.3
2022-08-11T11:15:00.288Z,5.2
2022-08-11T11:20:00.232Z,6.7
2022-08-11T11:25:00.371Z,6.2
2022-08-11T11:30:00.230Z,6.2
2022-08-11T11:35:00.176Z,5.9
2022-08-11T11:40:00.212Z,6.1
2022-08-11T11:45:01.422Z,3.6
2022-08-11T11:50:00.193Z,5.7
2022-08-11T11:55:00.188Z,3.6
2022-08-11T12:00:00.229Z,3.3
2022-08-11T12:05:00.229Z,4.2
2022-08-11T12:10:00.186Z,5.1
2022-08-11T12:15:00.193Z,2.7
2022-08-11T12:20:00.213Z,5.7
2022-08-11T12:25:00.201Z,3.3
2022-08-11T12:30:00.269Z,4.5
2022-08-11T12:35:00.237Z,3.8
2022-08-11T12:40:15.840Z,5.0
2022-08-11T12:45:00.194Z,4.4
2022-08-11T12:50:00.204Z,5.9
2022-08-11T12:55:00.266Z,4.0
2022-08-11T13:00:00.198Z,7.5
2022-08-11T13:05:00.217Z,4.3
2022-08-11T13:10:00.248Z,2.0
2022-08-11T13:15:00.202Z,4.1
2022-08-11T13:20:00.183Z,3.0
2022-08-11T13:25:00.216Z,2.7
2022-08-11T13:30:00.192Z,2.7
2022-08-11T13:40:00.445Z,4.4
2022-08-11T13:45:00.241Z,7.4
2022-08-11T13:50:00.212Z,3.2
2022-08-11T13:55:00.201Z,3.9
2022-08-11T14:00:00.432Z,4.0
2022-08-11T14:05:00.218Z,5.7
2022-08-11T14:10:00.184Z,3.4
2022-08-11T14:15:03.294Z,2.9
2022-08-11T14:20:00.246Z,3.1
2022-08-11T14:25:00.231Z,3.6
2022-08-11T14:30:00.238Z,3.7
2022-08-11T14:35:00.221Z,4.0
2022-08-11T14:40:03.685Z,3.7
2022-08-11T14:45:00.165Z,5.0
2022-08-11T14:50:11.107Z,2.2
2022-08-11T14:55:00.167Z,5.3
2022-08-11T15:00:00.212Z,4.0
2022-08-11T15:05:00.212Z,4.0
2022-08-11T15:10:13.515Z,5.9
2022-08-11T15:15:00.172Z,3.0
2022-08-11T15:20:00.418Z,6.8
2022-08-11T15:25:00.240Z,5.0
2022-08-11T15:30:00.388Z,5.7
2022-08-11T15:35:03.706Z,6.4
2022-08-11T15:40:00.438Z,2.6
2022-08-11T15:45:03.330Z,6.1
2022-08-11T15:50:11.270Z,7.1
2022-08-11T15:55:00.172Z,5.4
2022-08-11T16:00:00.229Z,4.0
2022-08-11T16:05:00.206Z,8.4
2022-08-11T16:10:00.743Z,5.7
2022-08-11T16:15:00.176Z,4.2
2022-08-11T16:20:00.240Z,6.2
2022-08-11T16:26:30.544Z,9.7
2022-08-11T16:30:00.209Z,6.0
2022-08-11T16:35:00.207Z,3.2
2022-08-11T16:40:00.304Z,4.6
2022-08-11T16:45:00.244Z,3.9
2022-08-11T16:50:00.216Z,8.0
2022-08-11T16:55:00.203Z,8.6
2022-08-11T17:00:00.195Z,6.7
2022-08-11T17:05:00.184Z,4.3
2022-08-11T17:10:00.175Z,7.1
2022-08-11T17:15:00.199Z,5.6
2022-08-11T17:20:40.316Z,6.5
2022-08-11T17:25:00.163Z,6.1
2022-08-11T17:30:00.186Z,6.7
2022-08-11T17:35:00.202Z,8.0
2022-08-11T17:40:00.301Z,7.1
2022-08-11T17:45:00.220Z,22.0
2022-08-11T17:50:14.560Z,6.6
2022-08-11T17:55:00.187Z,6.3
2022-08-11T18:00:00.192Z,9.3
2022-08-11T18:05:00.187Z,9.0
2022-08-11T18:10:00.195Z,9.1
2022-08-11T18:15:00.163Z,10.7
2022-08-11T18:20:00.218Z,12.5
2022-08-11T18:25:00.202Z,13.1
2022-08-11T18:30:00.182Z,15.9
2022-08-11T18:35:00.220Z,10.6
2022-08-11T18:40:00.331Z,14.6
2022-08-11T18:45:00.162Z,10.3
2022-08-11T18:50:02.243Z,12.0
2022-08-11T18:55:00.213Z,10.7
2022-08-11T19:00:00.217Z,10.6
2022-08-11T19:05:00.161Z,8.7
2022-08-11T19:10:00.230Z,9.5
2022-08-11T19:15:00.191Z,7.7
2022-08-11T19:20:00.196Z,7.1
2022-08-11T19:25:00.156Z,5.8
2022-08-11T19:30:07.831Z,6.6
2022-08-11T19:35:00.178Z,8.3
2022-08-11T19:40:00.363Z,13.9
2022-08-11T19:45:00.208Z,16.0
2022-08-11T19:50:00.188Z,6.5
2022-08-11T19:55:00.202Z,7.4
2022-08-11T20:00:00.202Z,7.4
2022-08-11T20:05:00.166Z,4.1
2022-08-11T20:10:05.079Z,6.2
2022-08-11T20:15:00.182Z,6.6
2022-08-11T20:25:00.181Z,7.0
2022-08-11T20:30:00.382Z,6.4
2022-08-11T20:35:00.192Z,5.0
2022-08-11T20:40:00.223Z,5.1
2022-08-11T20:45:00.346Z,6.6
2022-08-11T20:50:00.165Z,6.3
2022-08-11T20:55:00.699Z,6.4
2022-08-11T21:00:00.204Z,5.7
2022-08-11T21:05:00.689Z,4.2
2022-08-11T21:10:09.329Z,6.4
2022-08-11T21:15:00.204Z,5.0
2022-08-11T21:20:07.152Z,7.3
2022-08-11T21:25:00.162Z,7.6
2022-08-11T21:30:00.210Z,6.2
2022-08-11T21:35:00.189Z,5.1
2022-08-11T21:40:00.355Z,6.3
2022-08-11T21:45:00.175Z,6.1
2022-08-11T21:50:00.196Z,10.4
2022-08-11T21:55:00.175Z,7.8
2022-08-11T22:00:00.271Z,10.0
2022-08-11T22:05:00.205Z,6.0
2022-08-11T22:10:00.193Z,6.8
2022-08-11T22:15:00.200Z,6.7
2022-08-11T22:20:00.655Z,7.9
2022-08-11T22:25:00.360Z,3.6
2022-08-11T22:30:00.176Z,4.8
2022-08-11T22:35:00.373Z,5.0
2022-08-11T22:40:03.053Z,6.5
2022-08-11T22:45:00.219Z,5.7
2022-08-11T22:50:00.202Z,5.0
2022-08-11T22:55:00.159Z,3.8
2022-08-11T23:00:00.206Z,3.5
2022-08-11T23:05:00.176Z,6.5
2022-08-11T23:10:00.202Z,4.0
2022-08-11T23:15:00.325Z,7.5
2022-08-11T23:20:07.348Z,5.1
2022-08-11T23:25:00.205Z,10.9
2022-08-11T23:30:00.212Z,7.3
2022-08-11T23:35:04.701Z,6.6
2022-08-11T23:40:00.165Z,6.3
2022-08-11T23:45:00.199Z,5.4
2022-08-11T23:50:00.231Z,5.1
2022-08-11T23:55:00.190Z,4.8
